sensor_id;sensor_type;location;lat;lon;timestamp;temperature;humidity
81136;DHT22;70622;50.886;3.890;2024-01-11T00:02:13;-1.80;88.00
81136;DHT22;70622;50.886;3.890;2024-01-11T00:04:39;-1.80;87.90
81136;DHT22;70622;50.886;3.890;2024-01-11T00:07:05;-1.80;87.80
81136;DHT22;70622;50.886;3.890;2024-01-11T00:09:31;-1.80;87.90
81136;DHT22;70622;50.886;3.890;2024-01-11T00:11:59;-1.90;88.00
81136;DHT22;70622;50.886;3.890;2024-01-11T00:14:28;-1.90;88.00
81136;DHT22;70622;50.886;3.890;2024-01-11T00:16:53;-1.80;88.20
81136;DHT22;70622;50.886;3.890;2024-01-11T00:19:41;-1.90;88.30
81136;DHT22;70622;50.886;3.890;2024-01-11T00:22:06;-2.00;88.80
81136;DHT22;70622;50.886;3.890;2024-01-11T00:24:35;-2.00;88.70
81136;DHT22;70622;50.886;3.890;2024-01-11T00:27:09;-2.00;89.30
81136;DHT22;70622;50.886;3.890;2024-01-11T00:29:55;-2.10;89.70
81136;DHT22;70622;50.886;3.890;2024-01-11T00:32:20;-2.10;89.70
81136;DHT22;70622;50.886;3.890;2024-01-11T00:34:49;-1.90;89.30
81136;DHT22;70622;50.886;3.890;2024-01-11T00:37:16;-1.90;89.10
81136;DHT22;70622;50.886;3.890;2024-01-11T00:40:03;-1.90;88.90
81136;DHT22;70622;50.886;3.890;2024-01-11T00:42:30;-1.90;89.10
81136;DHT22;70622;50.886;3.890;2024-01-11T00:44:55;-1.90;89.20
81136;DHT22;70622;50.886;3.890;2024-01-11T00:47:24;-2.00;89.00
81136;DHT22;70622;50.886;3.890;2024-01-11T00:49:49;-2.00;89.50
81136;DHT22;70622;50.886;3.890;2024-01-11T00:52:19;-2.00;89.10
81136;DHT22;70622;50.886;3.890;2024-01-11T00:54:53;-2.00;89.10
81136;DHT22;70622;50.886;3.890;2024-01-11T00:57:28;-2.00;89.50
81136;DHT22;70622;50.886;3.890;2024-01-11T00:59:57;-2.00;89.30
81136;DHT22;70622;50.886;3.890;2024-01-11T01:02:45;-2.00;88.90
81136;DHT22;70622;50.886;3.890;2024-01-11T01:05:11;-1.90;88.50
81136;DHT22;70622;50.886;3.890;2024-01-11T01:07:36;-2.10;88.90
81136;DHT22;70622;50.886;3.890;2024-01-11T01:10:02;-2.10;89.50
81136;DHT22;70622;50.886;3.890;2024-01-11T01:12:28;-2.10;89.90
81136;DHT22;70622;50.886;3.890;2024-01-11T01:14:59;-2.10;89.90
81136;DHT22;70622;50.886;3.890;2024-01-11T01:17:28;-2.10;90.00
81136;DHT22;70622;50.886;3.890;2024-01-11T01:20:03;-2.10;89.50
81136;DHT22;70622;50.886;3.890;2024-01-11T01:22:49;-2.10;89.10
81136;DHT22;70622;50.886;3.890;2024-01-11T01:25:14;-2.00;88.70
81136;DHT22;70622;50.886;3.890;2024-01-11T01:27:49;-2.10;88.90
81136;DHT22;70622;50.886;3.890;2024-01-11T01:30:18;-2.10;88.90
81136;DHT22;70622;50.886;3.890;2024-01-11T01:32:43;-2.10;88.90
81136;DHT22;70622;50.886;3.890;2024-01-11T01:35:15;-2.10;89.00
81136;DHT22;70622;50.886;3.890;2024-01-11T01:37:41;-2.00;88.80
81136;DHT22;70622;50.886;3.890;2024-01-11T01:40:07;-2.10;88.80
81136;DHT22;70622;50.886;3.890;2024-01-11T01:42:33;-2.10;89.10
81136;DHT22;70622;50.886;3.890;2024-01-11T01:45:01;-2.10;88.90
81136;DHT22;70622;50.886;3.890;2024-01-11T01:47:27;-2.10;88.40
81136;DHT22;70622;50.886;3.890;2024-01-11T01:49:56;-2.10;88.80
81136;DHT22;70622;50.886;3.890;2024-01-11T01:52:21;-2.10;89.00
81136;DHT22;70622;50.886;3.890;2024-01-11T01:54:50;-2.10;88.80
81136;DHT22;70622;50.886;3.890;2024-01-11T01:57:19;-2.10;88.60
81136;DHT22;70622;50.886;3.890;2024-01-11T01:59:49;-2.10;88.50
81136;DHT22;70622;50.886;3.890;2024-01-11T02:02:16;-2.10;88.40
81136;DHT22;70622;50.886;3.890;2024-01-11T02:04:42;-2.10;88.40
81136;DHT22;70622;50.886;3.890;2024-01-11T02:07:27;-2.10;88.80
81136;DHT22;70622;50.886;3.890;2024-01-11T02:09:55;-2.10;88.90
81136;DHT22;70622;50.886;3.890;2024-01-11T02:12:25;-2.20;88.80
81136;DHT22;70622;50.886;3.890;2024-01-11T02:14:53;-2.20;89.30
81136;DHT22;70622;50.886;3.890;2024-01-11T02:17:19;-2.20;89.30
81136;DHT22;70622;50.886;3.890;2024-01-11T02:19:45;-2.10;89.10
81136;DHT22;70622;50.886;3.890;2024-01-11T02:22:20;-2.10;89.20
81136;DHT22;70622;50.886;3.890;2024-01-11T02:24:47;-2.10;88.50
81136;DHT22;70622;50.886;3.890;2024-01-11T02:27:15;-2.10;88.70
81136;DHT22;70622;50.886;3.890;2024-01-11T02:30:01;-2.10;88.60
81136;DHT22;70622;50.886;3.890;2024-01-11T02:32:47;-2.20;89.10
81136;DHT22;70622;50.886;3.890;2024-01-11T02:35:15;-2.10;89.00
81136;DHT22;70622;50.886;3.890;2024-01-11T02:37:41;-2.20;89.00
81136;DHT22;70622;50.886;3.890;2024-01-11T02:40:07;-2.10;89.00
81136;DHT22;70622;50.886;3.890;2024-01-11T02:42:39;-2.10;88.70
81136;DHT22;70622;50.886;3.890;2024-01-11T02:45:08;-2.20;88.90
81136;DHT22;70622;50.886;3.890;2024-01-11T02:47:35;-2.10;88.80
81136;DHT22;70622;50.886;3.890;2024-01-11T02:50:04;-2.10;88.80
81136;DHT22;70622;50.886;3.890;2024-01-11T02:52:49;-2.20;88.70
81136;DHT22;70622;50.886;3.890;2024-01-11T02:55:15;-2.10;88.80
81136;DHT22;70622;50.886;3.890;2024-01-11T02:57:46;-2.20;88.90
81136;DHT22;70622;50.886;3.890;2024-01-11T03:00:12;-2.20;89.10
81136;DHT22;70622;50.886;3.890;2024-01-11T03:02:37;-2.20;89.50
81136;DHT22;70622;50.886;3.890;2024-01-11T03:05:06;-2.30;90.00
81136;DHT22;70622;50.886;3.890;2024-01-11T03:07:32;-2.20;90.00
81136;DHT22;70622;50.886;3.890;2024-01-11T03:09:58;-2.20;89.60
81136;DHT22;70622;50.886;3.890;2024-01-11T03:12:26;-2.20;89.50
81136;DHT22;70622;50.886;3.890;2024-01-11T03:15:15;-2.20;89.70
81136;DHT22;70622;50.886;3.890;2024-01-11T03:17:43;-2.20;90.00
81136;DHT22;70622;50.886;3.890;2024-01-11T03:20:09;-2.30;90.10
81136;DHT22;70622;50.886;3.890;2024-01-11T03:22:47;-2.30;90.30
81136;DHT22;70622;50.886;3.890;2024-01-11T03:25:12;-2.40;90.50
81136;DHT22;70622;50.886;3.890;2024-01-11T03:27:41;-2.40;90.60
81136;DHT22;70622;50.886;3.890;2024-01-11T03:30:07;-2.40;90.50
81136;DHT22;70622;50.886;3.890;2024-01-11T03:32:52;-2.30;90.40
81136;DHT22;70622;50.886;3.890;2024-01-11T03:35:18;-2.30;90.20
81136;DHT22;70622;50.886;3.890;2024-01-11T03:37:47;-2.20;90.20
81136;DHT22;70622;50.886;3.890;2024-01-11T03:40:12;-2.30;90.20
81136;DHT22;70622;50.886;3.890;2024-01-11T03:42:47;-2.30;90.40
81136;DHT22;70622;50.886;3.890;2024-01-11T03:45:19;-2.30;90.50
81136;DHT22;70622;50.886;3.890;2024-01-11T03:47:47;-2.40;90.50
81136;DHT22;70622;50.886;3.890;2024-01-11T03:50:22;-2.40;90.60
81136;DHT22;70622;50.886;3.890;2024-01-11T03:52:48;-2.40;90.60
81136;DHT22;70622;50.886;3.890;2024-01-11T03:55:13;-2.40;90.60
81136;DHT22;70622;50.886;3.890;2024-01-11T03:57:39;-2.40;90.70
81136;DHT22;70622;50.886;3.890;2024-01-11T04:00:05;-2.30;90.70
81136;DHT22;70622;50.886;3.890;2024-01-11T04:02:34;-2.40;90.80
81136;DHT22;70622;50.886;3.890;2024-01-11T04:05:00;-2.30;90.80
81136;DHT22;70622;50.886;3.890;2024-01-11T04:07:28;-2.30;90.70
81136;DHT22;70622;50.886;3.890;2024-01-11T04:09:54;-2.20;90.70
81136;DHT22;70622;50.886;3.890;2024-01-11T04:12:19;-2.20;90.50
81136;DHT22;70622;50.886;3.890;2024-01-11T04:14:45;-2.10;90.30
81136;DHT22;70622;50.886;3.890;2024-01-11T04:17:11;-2.10;90.20
81136;DHT22;70622;50.886;3.890;2024-01-11T04:19:36;-2.10;90.20
81136;DHT22;70622;50.886;3.890;2024-01-11T04:22:05;-2.20;90.90
81136;DHT22;70622;50.886;3.890;2024-01-11T04:24:41;-2.10;90.40
81136;DHT22;70622;50.886;3.890;2024-01-11T04:27:10;-2.10;90.50
81136;DHT22;70622;50.886;3.890;2024-01-11T04:29:35;-2.10;90.50
81136;DHT22;70622;50.886;3.890;2024-01-11T04:32:04;-2.10;90.60
81136;DHT22;70622;50.886;3.890;2024-01-11T04:34:30;-2.10;90.60
81136;DHT22;70622;50.886;3.890;2024-01-11T04:36:59;-2.10;90.60
81136;DHT22;70622;50.886;3.890;2024-01-11T04:39:28;-2.20;90.60
81136;DHT22;70622;50.886;3.890;2024-01-11T04:41:56;-2.10;90.50
81136;DHT22;70622;50.886;3.890;2024-01-11T04:44:25;-2.20;90.50
81136;DHT22;70622;50.886;3.890;2024-01-11T04:46:50;-2.20;90.70
81136;DHT22;70622;50.886;3.890;2024-01-11T04:49:16;-2.30;90.80
81136;DHT22;70622;50.886;3.890;2024-01-11T04:51:41;-2.20;91.00
81136;DHT22;70622;50.886;3.890;2024-01-11T04:54:10;-2.20;90.90
81136;DHT22;70622;50.886;3.890;2024-01-11T04:56:35;-2.20;90.90
81136;DHT22;70622;50.886;3.890;2024-01-11T04:59:01;-2.20;90.70
81136;DHT22;70622;50.886;3.890;2024-01-11T05:01:27;-2.10;90.70
81136;DHT22;70622;50.886;3.890;2024-01-11T05:03:52;-2.20;90.70
81136;DHT22;70622;50.886;3.890;2024-01-11T05:06:18;-2.10;90.60
81136;DHT22;70622;50.886;3.890;2024-01-11T05:08:46;-2.10;90.50
81136;DHT22;70622;50.886;3.890;2024-01-11T05:11:15;-2.10;90.60
81136;DHT22;70622;50.886;3.890;2024-01-11T05:13:41;-2.20;90.60
81136;DHT22;70622;50.886;3.890;2024-01-11T05:16:07;-2.30;90.90
81136;DHT22;70622;50.886;3.890;2024-01-11T05:18:32;-2.30;91.20
81136;DHT22;70622;50.886;3.890;2024-01-11T05:20:58;-2.30;91.30
81136;DHT22;70622;50.886;3.890;2024-01-11T05:23:24;-2.30;91.30
81136;DHT22;70622;50.886;3.890;2024-01-11T05:25:49;-2.30;91.30
81136;DHT22;70622;50.886;3.890;2024-01-11T05:28:15;-2.30;91.30
81136;DHT22;70622;50.886;3.890;2024-01-11T05:30:41;-2.30;91.30
81136;DHT22;70622;50.886;3.890;2024-01-11T05:33:06;-2.20;91.30
81136;DHT22;70622;50.886;3.890;2024-01-11T05:35:32;-2.20;91.30
81136;DHT22;70622;50.886;3.890;2024-01-11T05:38:01;-2.30;91.40
81136;DHT22;70622;50.886;3.890;2024-01-11T05:40:26;-2.30;91.50
81136;DHT22;70622;50.886;3.890;2024-01-11T05:42:52;-2.30;91.70
81136;DHT22;70622;50.886;3.890;2024-01-11T05:45:27;-2.30;91.80
81136;DHT22;70622;50.886;3.890;2024-01-11T05:48:05;-2.30;92.10
81136;DHT22;70622;50.886;3.890;2024-01-11T05:50:40;-2.30;92.10
81136;DHT22;70622;50.886;3.890;2024-01-11T05:58:29;-2.30;92.50
81136;DHT22;70622;50.886;3.890;2024-01-11T06:01:40;-2.30;92.70
81136;DHT22;70622;50.886;3.890;2024-01-11T06:12:21;-2.30;92.90
81136;DHT22;70622;50.886;3.890;2024-01-11T06:14:47;-2.30;93.10
81136;DHT22;70622;50.886;3.890;2024-01-11T07:24:31;-2.80;95.50
81136;DHT22;70622;50.886;3.890;2024-01-11T07:29:37;-2.80;95.80
81136;DHT22;70622;50.886;3.890;2024-01-11T07:32:03;-3.00;96.10
81136;DHT22;70622;50.886;3.890;2024-01-11T07:34:31;-3.10;96.70
81136;DHT22;70622;50.886;3.890;2024-01-11T07:36:57;-3.10;97.00
81136;DHT22;70622;50.886;3.890;2024-01-11T07:39:23;-3.10;96.90
81136;DHT22;70622;50.886;3.890;2024-01-11T07:41:49;-3.20;96.90
81136;DHT22;70622;50.886;3.890;2024-01-11T07:44:15;-3.10;97.10
81136;DHT22;70622;50.886;3.890;2024-01-11T07:46:40;-3.10;97.10
81136;DHT22;70622;50.886;3.890;2024-01-11T07:49:06;-3.00;96.90
81136;DHT22;70622;50.886;3.890;2024-01-11T07:51:36;-2.90;96.80
81136;DHT22;70622;50.886;3.890;2024-01-11T07:54:11;-2.90;96.50
81136;DHT22;70622;50.886;3.890;2024-01-11T07:56:37;-2.90;96.50
81136;DHT22;70622;50.886;3.890;2024-01-11T07:59:05;-2.80;96.30
81136;DHT22;70622;50.886;3.890;2024-01-11T08:01:31;-2.70;96.00
81136;DHT22;70622;50.886;3.890;2024-01-11T08:04:01;-2.60;95.70
81136;DHT22;70622;50.886;3.890;2024-01-11T08:06:28;-2.60;95.70
81136;DHT22;70622;50.886;3.890;2024-01-11T08:08:53;-2.70;95.60
81136;DHT22;70622;50.886;3.890;2024-01-11T08:11:19;-2.70;96.00
81136;DHT22;70622;50.886;3.890;2024-01-11T08:13:45;-2.80;96.10
81136;DHT22;70622;50.886;3.890;2024-01-11T08:16:15;-2.70;96.20
81136;DHT22;70622;50.886;3.890;2024-01-11T08:18:40;-2.70;96.20
81136;DHT22;70622;50.886;3.890;2024-01-11T08:21:06;-2.70;96.10
81136;DHT22;70622;50.886;3.890;2024-01-11T08:23:34;-2.70;96.20
81136;DHT22;70622;50.886;3.890;2024-01-11T08:26:00;-2.70;96.20
81136;DHT22;70622;50.886;3.890;2024-01-11T08:28:25;-2.60;96.00
81136;DHT22;70622;50.886;3.890;2024-01-11T08:30:51;-2.50;95.70
81136;DHT22;70622;50.886;3.890;2024-01-11T08:33:16;-2.30;95.30
81136;DHT22;70622;50.886;3.890;2024-01-11T08:35:42;-2.30;95.00
81136;DHT22;70622;50.886;3.890;2024-01-11T08:38:07;-2.20;94.90
81136;DHT22;70622;50.886;3.890;2024-01-11T08:40:33;-2.20;94.80
81136;DHT22;70622;50.886;3.890;2024-01-11T08:42:59;-2.20;94.80
81136;DHT22;70622;50.886;3.890;2024-01-11T08:45:25;-2.30;95.00
81136;DHT22;70622;50.886;3.890;2024-01-11T08:47:56;-2.30;95.30
81136;DHT22;70622;50.886;3.890;2024-01-11T08:50:21;-2.30;95.40
81136;DHT22;70622;50.886;3.890;2024-01-11T08:52:48;-2.40;95.20
81136;DHT22;70622;50.886;3.890;2024-01-11T08:55:13;-2.30;95.60
81136;DHT22;70622;50.886;3.890;2024-01-11T08:57:39;-2.30;95.50
81136;DHT22;70622;50.886;3.890;2024-01-11T09:00:05;-2.30;95.50
81136;DHT22;70622;50.886;3.890;2024-01-11T09:02:36;-2.30;95.50
81136;DHT22;70622;50.886;3.890;2024-01-11T09:05:02;-2.30;95.60
81136;DHT22;70622;50.886;3.890;2024-01-11T09:07:30;-2.10;95.40
81136;DHT22;70622;50.886;3.890;2024-01-11T09:09:55;-2.00;95.00
81136;DHT22;70622;50.886;3.890;2024-01-11T09:12:21;-1.90;94.80
81136;DHT22;70622;50.886;3.890;2024-01-11T09:14:50;-1.80;94.40
81136;DHT22;70622;50.886;3.890;2024-01-11T09:17:15;-1.80;94.20
81136;DHT22;70622;50.886;3.890;2024-01-11T09:19:41;-1.90;94.40
81136;DHT22;70622;50.886;3.890;2024-01-11T09:22:06;-2.00;94.60
81136;DHT22;70622;50.886;3.890;2024-01-11T09:24:35;-2.00;94.60
81136;DHT22;70622;50.886;3.890;2024-01-11T09:27:03;-1.90;94.10
81136;DHT22;70622;50.886;3.890;2024-01-11T09:29:29;-1.90;94.00
81136;DHT22;70622;50.886;3.890;2024-01-11T09:31:55;-1.80;93.80
81136;DHT22;70622;50.886;3.890;2024-01-11T09:34:20;-1.70;93.80
81136;DHT22;70622;50.886;3.890;2024-01-11T09:36:46;-1.60;93.60
81136;DHT22;70622;50.886;3.890;2024-01-11T09:39:12;-1.60;93.60
81136;DHT22;70622;50.886;3.890;2024-01-11T09:41:42;-1.60;93.60
81136;DHT22;70622;50.886;3.890;2024-01-11T09:44:09;-1.60;93.30
81136;DHT22;70622;50.886;3.890;2024-01-11T09:46:38;-1.50;93.30
81136;DHT22;70622;50.886;3.890;2024-01-11T09:49:03;-1.50;93.30
81136;DHT22;70622;50.886;3.890;2024-01-11T09:51:29;-1.50;92.90
81136;DHT22;70622;50.886;3.890;2024-01-11T09:53:55;-1.40;92.80
81136;DHT22;70622;50.886;3.890;2024-01-11T09:56:22;-1.30;92.60
81136;DHT22;70622;50.886;3.890;2024-01-11T09:58:50;-1.30;92.60
81136;DHT22;70622;50.886;3.890;2024-01-11T10:01:16;-1.20;92.10
81136;DHT22;70622;50.886;3.890;2024-01-11T10:03:42;-1.20;91.60
81136;DHT22;70622;50.886;3.890;2024-01-11T10:06:08;-1.20;91.60
81136;DHT22;70622;50.886;3.890;2024-01-11T10:08:34;-1.30;92.10
81136;DHT22;70622;50.886;3.890;2024-01-11T10:11:00;-1.30;92.40
81136;DHT22;70622;50.886;3.890;2024-01-11T10:13:27;-1.20;92.60
81136;DHT22;70622;50.886;3.890;2024-01-11T10:16:04;-1.20;92.80
81136;DHT22;70622;50.886;3.890;2024-01-11T10:18:30;-1.20;92.70
81136;DHT22;70622;50.886;3.890;2024-01-11T10:20:56;-1.00;92.40
81136;DHT22;70622;50.886;3.890;2024-01-11T10:23:22;-1.00;91.80
81136;DHT22;70622;50.886;3.890;2024-01-11T10:25:47;-0.90;91.30
81136;DHT22;70622;50.886;3.890;2024-01-11T10:28:14;-0.80;91.30
81136;DHT22;70622;50.886;3.890;2024-01-11T10:30:40;-0.70;90.80
81136;DHT22;70622;50.886;3.890;2024-01-11T10:33:07;-0.70;90.90
81136;DHT22;70622;50.886;3.890;2024-01-11T10:35:33;-0.70;91.10
81136;DHT22;70622;50.886;3.890;2024-01-11T10:37:59;-0.60;91.20
81136;DHT22;70622;50.886;3.890;2024-01-11T10:40:28;-0.60;91.00
81136;DHT22;70622;50.886;3.890;2024-01-11T10:43:00;-0.60;91.30
81136;DHT22;70622;50.886;3.890;2024-01-11T10:45:27;-0.50;91.20
81136;DHT22;70622;50.886;3.890;2024-01-11T10:47:56;-0.50;91.00
81136;DHT22;70622;50.886;3.890;2024-01-11T10:50:25;-0.40;91.00
81136;DHT22;70622;50.886;3.890;2024-01-11T10:52:56;-0.40;90.80
81136;DHT22;70622;50.886;3.890;2024-01-11T10:55:27;-0.20;90.60
81136;DHT22;70622;50.886;3.890;2024-01-11T10:57:52;-0.20;90.70
81136;DHT22;70622;50.886;3.890;2024-01-11T11:00:18;-0.10;90.10
81136;DHT22;70622;50.886;3.890;2024-01-11T11:02:44;-0.10;90.20
81136;DHT22;70622;50.886;3.890;2024-01-11T11:05:12;-0.20;90.40
81136;DHT22;70622;50.886;3.890;2024-01-11T11:07:38;-0.10;90.50
81136;DHT22;70622;50.886;3.890;2024-01-11T11:10:04;-0.10;89.90
81136;DHT22;70622;50.886;3.890;2024-01-11T11:12:33;-0.10;90.10
81136;DHT22;70622;50.886;3.890;2024-01-11T11:15:01;-0.10;90.50
81136;DHT22;70622;50.886;3.890;2024-01-11T11:17:26;0.00;90.10
81136;DHT22;70622;50.886;3.890;2024-01-11T11:19:52;-0.10;90.60
81136;DHT22;70622;50.886;3.890;2024-01-11T11:22:19;0.00;90.10
81136;DHT22;70622;50.886;3.890;2024-01-11T11:24:45;0.10;89.50
81136;DHT22;70622;50.886;3.890;2024-01-11T11:27:13;0.10;90.40
81136;DHT22;70622;50.886;3.890;2024-01-11T11:29:38;0.20;90.10
81136;DHT22;70622;50.886;3.890;2024-01-11T11:32:05;0.10;88.30
81136;DHT22;70622;50.886;3.890;2024-01-11T11:34:40;0.20;88.30
81136;DHT22;70622;50.886;3.890;2024-01-11T11:37:39;0.00;89.70
81136;DHT22;70622;50.886;3.890;2024-01-11T11:40:08;0.10;89.90
81136;DHT22;70622;50.886;3.890;2024-01-11T11:42:36;0.30;88.70
81136;DHT22;70622;50.886;3.890;2024-01-11T11:45:02;0.40;88.30
81136;DHT22;70622;50.886;3.890;2024-01-11T11:47:35;0.50;88.30
81136;DHT22;70622;50.886;3.890;2024-01-11T11:52:39;0.50;87.50
81136;DHT22;70622;50.886;3.890;2024-01-11T11:55:09;0.50;86.60
81136;DHT22;70622;50.886;3.890;2024-01-11T11:57:35;0.70;86.30
81136;DHT22;70622;50.886;3.890;2024-01-11T12:00:02;0.60;86.70
81136;DHT22;70622;50.886;3.890;2024-01-11T12:02:31;0.70;88.90
81136;DHT22;70622;50.886;3.890;2024-01-11T12:04:58;0.90;86.50
81136;DHT22;70622;50.886;3.890;2024-01-11T12:07:27;0.90;85.70
81136;DHT22;70622;50.886;3.890;2024-01-11T12:09:52;0.90;85.50
81136;DHT22;70622;50.886;3.890;2024-01-11T12:12:18;0.90;85.40
81136;DHT22;70622;50.886;3.890;2024-01-11T12:14:46;1.00;85.10
81136;DHT22;70622;50.886;3.890;2024-01-11T12:17:12;1.10;84.70
81136;DHT22;70622;50.886;3.890;2024-01-11T12:19:37;1.20;84.40
81136;DHT22;70622;50.886;3.890;2024-01-11T12:22:03;1.20;83.70
81136;DHT22;70622;50.886;3.890;2024-01-11T12:24:28;1.20;84.80
81136;DHT22;70622;50.886;3.890;2024-01-11T12:27:05;1.20;85.40
81136;DHT22;70622;50.886;3.890;2024-01-11T12:29:32;1.20;85.40
81136;DHT22;70622;50.886;3.890;2024-01-11T12:31:58;1.40;84.50
81136;DHT22;70622;50.886;3.890;2024-01-11T12:34:24;1.50;83.20
81136;DHT22;70622;50.886;3.890;2024-01-11T12:36:50;1.60;83.40
81136;DHT22;70622;50.886;3.890;2024-01-11T12:39:16;1.60;83.10
81136;DHT22;70622;50.886;3.890;2024-01-11T12:41:42;1.50;84.10
81136;DHT22;70622;50.886;3.890;2024-01-11T12:44:08;1.50;83.50
81136;DHT22;70622;50.886;3.890;2024-01-11T12:46:36;1.60;83.50
81136;DHT22;70622;50.886;3.890;2024-01-11T12:49:02;1.60;83.40
81136;DHT22;70622;50.886;3.890;2024-01-11T12:51:28;1.60;82.90
81136;DHT22;70622;50.886;3.890;2024-01-11T12:53:53;1.70;82.60
81136;DHT22;70622;50.886;3.890;2024-01-11T12:56:19;1.60;82.80
81136;DHT22;70622;50.886;3.890;2024-01-11T12:58:46;1.60;83.40
81136;DHT22;70622;50.886;3.890;2024-01-11T13:01:12;1.60;82.50
81136;DHT22;70622;50.886;3.890;2024-01-11T13:03:40;1.80;82.20
81136;DHT22;70622;50.886;3.890;2024-01-11T13:09:14;1.80;82.30
81136;DHT22;70622;50.886;3.890;2024-01-11T13:11:39;1.90;81.90
81136;DHT22;70622;50.886;3.890;2024-01-11T13:14:05;1.90;80.80
81136;DHT22;70622;50.886;3.890;2024-01-11T13:16:33;2.00;81.40
81136;DHT22;70622;50.886;3.890;2024-01-11T13:18:59;2.00;81.50
81136;DHT22;70622;50.886;3.890;2024-01-11T13:21:25;2.10;81.10
81136;DHT22;70622;50.886;3.890;2024-01-11T13:23:50;2.10;81.50
81136;DHT22;70622;50.886;3.890;2024-01-11T13:26:16;2.20;81.80
81136;DHT22;70622;50.886;3.890;2024-01-11T13:28:41;2.20;80.80
81136;DHT22;70622;50.886;3.890;2024-01-11T13:31:07;2.10;80.60
81136;DHT22;70622;50.886;3.890;2024-01-11T13:33:35;2.10;80.30
81136;DHT22;70622;50.886;3.890;2024-01-11T13:36:00;2.10;81.40
81136;DHT22;70622;50.886;3.890;2024-01-11T13:38:26;2.10;81.00
81136;DHT22;70622;50.886;3.890;2024-01-11T13:40:51;2.20;80.30
81136;DHT22;70622;50.886;3.890;2024-01-11T13:43:17;2.20;79.40
81136;DHT22;70622;50.886;3.890;2024-01-11T13:45:43;2.30;78.70
81136;DHT22;70622;50.886;3.890;2024-01-11T13:48:09;2.30;78.60
81136;DHT22;70622;50.886;3.890;2024-01-11T13:50:35;2.30;79.30
81136;DHT22;70622;50.886;3.890;2024-01-11T13:53:01;2.20;79.20
81136;DHT22;70622;50.886;3.890;2024-01-11T13:55:27;2.30;79.50
81136;DHT22;70622;50.886;3.890;2024-01-11T13:57:53;2.40;78.60
81136;DHT22;70622;50.886;3.890;2024-01-11T14:00:19;2.40;77.20
81136;DHT22;70622;50.886;3.890;2024-01-11T14:02:45;2.40;76.70
81136;DHT22;70622;50.886;3.890;2024-01-11T14:05:11;2.40;77.20
81136;DHT22;70622;50.886;3.890;2024-01-11T14:07:39;2.40;77.70
81136;DHT22;70622;50.886;3.890;2024-01-11T14:10:05;2.40;77.30
81136;DHT22;70622;50.886;3.890;2024-01-11T14:12:31;2.40;76.40
81136;DHT22;70622;50.886;3.890;2024-01-11T14:14:57;2.40;76.80
81136;DHT22;70622;50.886;3.890;2024-01-11T14:17:22;2.40;76.50
81136;DHT22;70622;50.886;3.890;2024-01-11T14:19:48;2.40;76.60
81136;DHT22;70622;50.886;3.890;2024-01-11T14:22:14;2.50;75.80
81136;DHT22;70622;50.886;3.890;2024-01-11T14:24:39;2.50;73.80
81136;DHT22;70622;50.886;3.890;2024-01-11T14:27:06;2.50;74.20
81136;DHT22;70622;50.886;3.890;2024-01-11T14:29:31;2.50;73.20
81136;DHT22;70622;50.886;3.890;2024-01-11T14:31:57;2.50;72.90
81136;DHT22;70622;50.886;3.890;2024-01-11T14:34:22;2.50;73.00
81136;DHT22;70622;50.886;3.890;2024-01-11T14:36:49;2.50;71.20
81136;DHT22;70622;50.886;3.890;2024-01-11T14:39:16;2.40;70.30
81136;DHT22;70622;50.886;3.890;2024-01-11T14:41:42;2.30;71.60
81136;DHT22;70622;50.886;3.890;2024-01-11T14:49:56;2.30;76.60
81136;DHT22;70622;50.886;3.890;2024-01-11T14:52:33;2.20;79.40
81136;DHT22;70622;50.886;3.890;2024-01-11T15:50:14;2.40;96.60
81136;DHT22;70622;50.886;3.890;2024-01-11T16:47:47;2.80;96.50
81136;DHT22;70622;50.886;3.890;2024-01-11T16:50:13;2.70;96.60
81136;DHT22;70622;50.886;3.890;2024-01-11T16:52:38;2.80;96.50
81136;DHT22;70622;50.886;3.890;2024-01-11T16:55:04;2.80;96.50
81136;DHT22;70622;50.886;3.890;2024-01-11T16:57:30;2.90;96.50
81136;DHT22;70622;50.886;3.890;2024-01-11T16:59:55;2.90;96.30
81136;DHT22;70622;50.886;3.890;2024-01-11T17:02:21;2.90;96.30
81136;DHT22;70622;50.886;3.890;2024-01-11T17:04:48;2.90;96.40
81136;DHT22;70622;50.886;3.890;2024-01-11T17:07:14;3.00;96.20
81136;DHT22;70622;50.886;3.890;2024-01-11T17:09:40;3.10;96.10
81136;DHT22;70622;50.886;3.890;2024-01-11T17:12:06;3.10;95.90
81136;DHT22;70622;50.886;3.890;2024-01-11T17:14:31;3.10;95.70
81136;DHT22;70622;50.886;3.890;2024-01-11T17:16:57;3.20;95.70
81136;DHT22;70622;50.886;3.890;2024-01-11T17:19:24;3.30;95.40
81136;DHT22;70622;50.886;3.890;2024-01-11T17:21:50;3.40;95.30
81136;DHT22;70622;50.886;3.890;2024-01-11T17:24:15;3.40;95.10
81136;DHT22;70622;50.886;3.890;2024-01-11T17:26:41;3.40;95.10
81136;DHT22;70622;50.886;3.890;2024-01-11T17:29:07;3.40;95.10
81136;DHT22;70622;50.886;3.890;2024-01-11T17:31:33;3.50;95.30
81136;DHT22;70622;50.886;3.890;2024-01-11T17:34:04;3.40;95.60
81136;DHT22;70622;50.886;3.890;2024-01-11T17:36:30;3.50;95.20
81136;DHT22;70622;50.886;3.890;2024-01-11T17:38:55;3.50;95.10
81136;DHT22;70622;50.886;3.890;2024-01-11T17:41:21;3.50;95.30
81136;DHT22;70622;50.886;3.890;2024-01-11T17:43:47;3.50;95.10
81136;DHT22;70622;50.886;3.890;2024-01-11T17:46:13;3.60;95.10
81136;DHT22;70622;50.886;3.890;2024-01-11T17:48:38;3.60;95.10
81136;DHT22;70622;50.886;3.890;2024-01-11T17:51:04;3.60;95.00
81136;DHT22;70622;50.886;3.890;2024-01-11T17:53:29;3.60;94.80
81136;DHT22;70622;50.886;3.890;2024-01-11T17:55:55;3.60;94.90
81136;DHT22;70622;50.886;3.890;2024-01-11T17:58:20;3.60;94.90
81136;DHT22;70622;50.886;3.890;2024-01-11T18:00:46;3.50;95.00
81136;DHT22;70622;50.886;3.890;2024-01-11T18:03:12;3.50;95.20
81136;DHT22;70622;50.886;3.890;2024-01-11T18:05:39;3.60;95.20
81136;DHT22;70622;50.886;3.890;2024-01-11T18:08:05;3.60;95.20
81136;DHT22;70622;50.886;3.890;2024-01-11T18:10:34;3.70;95.00
81136;DHT22;70622;50.886;3.890;2024-01-11T18:13:00;3.70;95.10
81136;DHT22;70622;50.886;3.890;2024-01-11T18:15:25;3.80;95.10
81136;DHT22;70622;50.886;3.890;2024-01-11T18:17:51;3.70;95.00
81136;DHT22;70622;50.886;3.890;2024-01-11T18:20:16;3.70;95.10
81136;DHT22;70622;50.886;3.890;2024-01-11T18:22:42;3.60;95.20
81136;DHT22;70622;50.886;3.890;2024-01-11T18:25:08;3.60;95.50
81136;DHT22;70622;50.886;3.890;2024-01-11T18:27:34;3.60;95.80
81136;DHT22;70622;50.886;3.890;2024-01-11T18:29:59;3.70;95.70
81136;DHT22;70622;50.886;3.890;2024-01-11T18:32:25;3.70;95.70
81136;DHT22;70622;50.886;3.890;2024-01-11T18:34:50;3.70;95.80
81136;DHT22;70622;50.886;3.890;2024-01-11T18:37:16;3.70;95.80
81136;DHT22;70622;50.886;3.890;2024-01-11T18:39:44;3.70;95.70
81136;DHT22;70622;50.886;3.890;2024-01-11T18:42:11;3.80;95.90
81136;DHT22;70622;50.886;3.890;2024-01-11T18:44:38;3.70;95.80
81136;DHT22;70622;50.886;3.890;2024-01-11T18:47:03;3.70;95.90
81136;DHT22;70622;50.886;3.890;2024-01-11T18:49:29;3.80;95.90
81136;DHT22;70622;50.886;3.890;2024-01-11T18:51:54;3.80;95.90
81136;DHT22;70622;50.886;3.890;2024-01-11T18:54:20;3.80;95.80
81136;DHT22;70622;50.886;3.890;2024-01-11T18:56:46;3.90;95.80
81136;DHT22;70622;50.886;3.890;2024-01-11T18:59:11;3.90;95.70
81136;DHT22;70622;50.886;3.890;2024-01-11T19:01:37;3.90;95.80
81136;DHT22;70622;50.886;3.890;2024-01-11T19:04:02;3.80;95.90
81136;DHT22;70622;50.886;3.890;2024-01-11T19:06:28;3.80;96.10